Tiempo atmosférico en la estación meteorológica de Ribadeo, Lugo (43 m.)



Fecha
DESCASC
Temp. máxima en grados centígrados (hora)
DESCASC
Temp. mínima en grados centígrados (hora)
DESCASC
Temp. media en grados centígrados
DESCASC
Racha de viento máxima en m/sg (hora)
DESCASC
Velocidad máxima media en intervalos de 10 minutos(hora)
DESCASC
Precipitaciones diarias en mm
DESCASC
Precipitaciones de 00:00 a 06:00 en mm
DESCASC
Precipitaciones de 06:00 a 12:00 en mm
DESCASC
Precipitaciones de 12:00 a 18:00 en mm
DESCASC
Precipitaciones de 18:00 a 24:00 en mm
DESCASC
29-03-2020 14 (16:20) 8.8 (23:00) 11.4 17.22 (21:30) 10.83 (20:10) 0 0 0 0 0
28-03-2020 14.4 (14:50) 3.9 (06:30) 9.1 8.06 (15:20) 5 (15:40) 0 0 0 0 0
27-03-2020 13.1 (15:50) 4.1 (05:40) 8.6 14.44 (15:20) 9.44 (15:20) 0 0 0 0 0
26-03-2020 12.9 (15:10) 5.9 (00:00) 9.4 9.17 (23:40) 5.28 (23:20) 0 0 0 0 0
25-03-2020 14.4 (14:10) 8.1 (00:00) 11.3 5.28 (15:00) 3.33 (05:00) 0 0 0 0 0
24-03-2020 15 (14:00) 7.9 (00:00) 11.5 5.56 (15:40) 3.61 (07:50) 0 0 0 0 0
23-03-2020 12.1 (00:00) 10.5 (00:00) 11.3 8.06 (13:10) 5.28 (13:10) 0.2 0 0 0 0.2
22-03-2020 15 (14:00) 11.3 (03:30) 13.2 8.06 (22:00) 4.44 (22:00) 0 0 0 0 0
21-03-2020 13.3 (14:40) 11.1 (00:00) 12.2 3.33 (18:20) 1.67 (18:20) 0 0 0 0 0
20-03-2020 13.6 (16:00) 11 (00:00) 12.3 3.89 (17:30) 2.78 (13:50) 0.4 0 0 0.2 0.2
19-03-2020 13 (12:50) 10.7 (00:00) 11.8 6.39 (21:40) 2.78 (14:40) 2.4 0 0 0 2.4
18-03-2020 14.3 (11:40) 6.9 (00:00) 10.6 5.56 (12:50) 3.61 (07:30) 0 0 0 0 0
17-03-2020 13.7 (12:30) 7.6 (00:00) 10.6 11.67 (16:50) 7.78 (16:50) 0 0 0 0 0
16-03-2020 12.8 (12:50) 8 (00:00) 10.4 11.94 (11:00) 6.39 (15:40) 3 1.4 1.4 0 0.2
15-03-2020 16.1 (11:50) 6 (00:00) 11.1 14.72 (10:00) 10.28 (10:00) 11.8 0 0 9.4 2.4
14-03-2020 15.5 (11:50) 6.7 (00:00) 11.1 5.56 (06:50) 4.17 (10:20) 0 0 0 0 0
13-03-2020 12.8 (16:10) 9.3 (07:10) 11.1 9.17 (08:00) 5.28 (13:20) 0.2 0 0.2 0 0
12-03-2020 13.8 (12:00) 9.5 (00:00) 11.7 6.39 (16:20) 3.89 (23:20) 1.8 0 0 1.6 0.2
11-03-2020 16.6 (13:10) 9 (00:00) 12.8 5.28 (15:00) 3.33 (15:00) 0 0 0 0 0
10-03-2020 -- (--) -- (--) -- -- (--) -- (--) -- 0 -- -- --
09-03-2020 16.1 (14:10) 9.3 (00:00) 12.7 8.33 (13:40) 5.28 (10:20) 0 0 0 0 0
08-03-2020 17.6 (16:00) 9.6 (00:00) 13.6 18.06 (05:30) 11.67 (09:00) 0 0 0 0 0
07-03-2020 15.4 (14:20) 7.8 (00:00) 11.6 6.67 (08:50) 5 (09:10) 0.2 0.2 0 0 0
06-03-2020 12.4 (14:30) 7.1 (00:00) 9.7 17.22 (06:10) 9.72 (06:10) 4 2.2 1.8 0 0
05-03-2020 -- (--) -- (--) -- -- (--) -- (--) -- -- -- -- --
04-03-2020 -- (--) -- (--) -- -- (--) -- (--) -- -- -- -- --
03-03-2020 -- (--) -- (--) -- -- (--) -- (--) -- -- -- -- --
02-03-2020 -- (--) -- (--) -- -- (--) -- (--) -- 11 -- -- --
01-03-2020 16.6 (15:20) 10.7 (00:00) 13.7 20.56 (04:40) 10.56 (04:40) 10 0.2 0.2 0 9.6
29-02-2020 15.8 (00:00) 10.6 (00:00) 13.2 23.89 (04:00) 11.39 (03:50) 5.6 5 0.6 0 0

Gráficas

Temp. máximas Temp. mínimas Temp. medias Precipitaciones Rachas de viento máximas Velocidades máximas media en intervalos de 10 minutos

Datos horarios

Fecha y hora oficial Temperatura (ºC) Velocidad del viento (km/h) Dirección del viento Racha (km/h) Dirección de racha Precipitación (mm) Presión (hPa) Tendencia (hPa) Humedad (%)
2020-03-29 23:00:00 8.8 36 Este 61 Este 0 -- -- 87
2020-03-29 22:00:00 9.5 35 Este 62 Este 0 -- -- 82
2020-03-29 21:00:00 9.7 39 Este 61 Nordeste 0 -- -- 85
2020-03-29 20:00:00 10.2 36 Este 54 Este 0 -- -- 90
2020-03-29 19:00:00 11.6 30 Nordeste 53 Este 0 -- -- 83
2020-03-29 18:00:00 12.6 29 Nordeste 47 Este 0 -- -- 83
2020-03-29 17:00:00 13.5 22 Nordeste 40 Este 0 -- -- 70
2020-03-29 16:00:00 13.9 22 Nordeste 41 Nordeste 0 -- -- 72
2020-03-29 15:00:00 12.5 26 Este 41 Este 0 -- -- 76
2020-03-29 14:00:00 12.6 22 Este 43 Este 0 -- -- 78
2020-03-29 13:00:00 13.7 24 Nordeste 42 Este 0 -- -- 72
2020-03-29 12:00:00 13 18 Nordeste 34 Este 0 -- -- 79
2020-03-29 11:00:00 12.5 13 Nordeste 22 Este 0 -- -- 78
2020-03-29 10:00:00 10.9 0 Calma 7 Este 0 -- -- 84
2020-03-29 09:00:00 10.2 4 Este 10 Este 0 -- -- 84
2020-03-29 08:00:00 10.2 4 Sudeste 7 Sudeste 0 -- -- 88
2020-03-29 07:00:00 10.2 0 Calma 9 Sudeste 0 -- -- 88
2020-03-29 06:00:00 10.4 5 Sudeste 8 Sudeste 0 -- -- 87
2020-03-29 05:00:00 10.8 5 Sudeste 9 Este 0 -- -- 86
2020-03-29 03:00:00 11.1 5 Sudeste 13 Este 0 -- -- 85
2020-03-29 01:00:00 11.2 6 Este 12 Este 0 -- -- 85
2020-03-29 00:00:00 11.5 6 Este 17 Nordeste 0 -- -- 80
2020-03-28 23:00:00 11.6 11 Este 20 Nordeste 0 -- -- 78
2020-03-28 22:00:00 11.4 9 Este 17 Nordeste 0 -- -- 82
2020-03-28 21:00:00 11.5 10 Este 19 Nordeste 0 -- -- 82
2020-03-28 20:00:00 11.8 11 Este 24 Este 0 -- -- 82
2020-03-28 19:00:00 12.4 13 Nordeste 26 Este 0 -- -- 79
2020-03-28 18:00:00 13 13 Nordeste 26 Este 0 -- -- 79
2020-03-28 17:00:00 13.6 18 Nordeste 28 Este 0 -- -- 76
2020-03-28 16:00:00 13.9 17 Este 29 Este 0 -- -- 76
2020-03-28 15:00:00 14.1 15 Nordeste 24 Este 0 -- -- 74
2020-03-28 14:00:00 13.9 8 Nordeste 18 Norte 0 -- -- 74
2020-03-28 13:00:00 13.2 9 Nordeste 17 Norte 0 -- -- 72
2020-03-28 12:00:00 12.7 5 Norte 12 Norte 0 -- -- 71
2020-03-28 11:00:00 11.7 5 Norte 10 Noroeste 0 -- -- 79
2020-03-28 10:00:00 10.5 4 Norte 8 Sudeste 0 -- -- 84
2020-03-28 09:00:00 8.2 5 Sudeste 12 Sudeste 0 -- -- 95
2020-03-28 08:00:00 5.1 10 Sur 14 Sur 0 -- -- 96
2020-03-28 07:00:00 4.2 10 Sur 12 Sur 0 -- -- 95
2020-03-28 06:00:00 4.4 9 Sur 14 Sur 0 -- -- 93
2020-03-28 05:00:00 4.8 8 Sur 15 Sudeste 0 -- -- 93
2020-03-28 04:00:00 5 13 Sur 14 Sur 0 -- -- 93
2020-03-28 03:00:00 5 11 Sur 14 Sur 0 -- -- 91
2020-03-28 02:00:00 5.3 9 Sur 13 Sudeste 0 -- -- 90
2020-03-28 01:00:00 6 6 Sur 11 Sur 0 -- -- 89
2020-03-28 00:00:00 5.9 4 Sur 7 Sur 0 -- -- 88
2020-03-27 23:00:00 7.3 4 Sur 15 Sudeste 0 -- -- 82
2020-03-27 22:00:00 9.3 8 Sudeste 18 Este 0 -- -- 78
2020-03-27 21:00:00 10.5 11 Este 29 Este 0 -- -- 76
2020-03-27 20:00:00 11 18 Este 38 Este 0 -- -- 73
2020-03-27 19:00:00 11.7 26 Este 46 Este 0 -- -- 66
2020-03-27 18:00:00 12.2 31 Este 46 Este 0 -- -- 63
2020-03-27 17:00:00 12.8 26 Este 52 Nordeste 0 -- -- 60
2020-03-27 16:00:00 12.9 30 Este 52 Nordeste 0 -- -- 59
2020-03-27 15:00:00 13 32 Este 48 Este 0 -- -- 56
2020-03-27 14:00:00 12.9 28 Este 48 Este 0 -- -- 59
2020-03-27 13:00:00 12.6 25 Nordeste 37 Este 0 -- -- 59
2020-03-27 12:00:00 12.3 19 Nordeste 37 Este 0 -- -- 54
2020-03-27 11:00:00 11.7 21 Nordeste 32 Este 0 -- -- 53
2020-03-27 10:00:00 10.8 8 Este 14 Este 0 -- -- 58
2020-03-27 09:00:00 8.1 4 Sudeste 17 Sudeste 0 -- -- 68
2020-03-27 08:00:00 6.1 10 Sudeste 13 Sudeste 0 -- -- 76
2020-03-27 07:00:00 5.4 9 Este 13 Este 0 -- -- 78
2020-03-27 06:00:00 4.1 7 Sudeste 11 Sudeste 0 -- -- 85
2020-03-27 05:00:00 4.5 8 Sudeste 11 Sudeste 0 -- -- 84
2020-03-27 04:00:00 6.2 10 Sudeste 12 Este 0 -- -- 77
2020-03-27 03:00:00 8.8 8 Este 24 Este 0 -- -- 68
2020-03-27 02:00:00 9.3 14 Este 31 Este 0 -- -- 66
2020-03-27 01:00:00 9.7 19 Este 32 Este 0 -- -- 67
2020-03-27 00:00:00 10 17 Este 33 Este 0 -- -- 72
2020-03-26 23:00:00 10.6 18 Este 28 Este 0 -- -- 69
2020-03-26 22:00:00 8.9 6 Sudeste 15 Este 0 -- -- 78
2020-03-26 21:00:00 10 10 Nordeste 19 Nordeste 0 -- -- 71
2020-03-26 20:00:00 10.3 9 Nordeste 19 Nordeste 0 -- -- 70
2020-03-26 19:00:00 11.3 11 Nordeste 21 Nordeste 0 -- -- 64
2020-03-26 18:00:00 12.1 13 Nordeste 25 Nordeste 0 -- -- 61
2020-03-26 17:00:00 12.5 15 Nordeste 24 Nordeste 0 -- -- 63
2020-03-26 16:00:00 12.6 14 Nordeste 24 Nordeste 0 -- -- 61
2020-03-26 15:00:00 12.7 12 Nordeste 23 Nordeste 0 -- -- 60
2020-03-26 14:00:00 12.7 13 Nordeste 28 Nordeste 0 -- -- 58
2020-03-26 13:00:00 12.5 14 Nordeste 27 Nordeste 0 -- -- 58
2020-03-26 12:00:00 11.8 9 Nordeste 23 Nordeste 0 -- -- 65
2020-03-26 11:00:00 11.4 10 Nordeste 16 Norte 0 -- -- 69
2020-03-26 10:00:00 10.4 3 Norte 7 Nordeste 0 -- -- 88
2020-03-26 09:00:00 9.2 4 Sudeste 8 Sur 0 -- -- 98
2020-03-26 08:00:00 6.5 4 Sur 9 Sur 0 -- -- 97
2020-03-26 07:00:00 6.2 8 Sur 13 Sur 0 -- -- 96
2020-03-26 06:00:00 6.3 5 Sur 13 Sudeste 0 -- -- 96
2020-03-26 05:00:00 7.3 3 Sudoeste 12 Sudeste 0 -- -- 95
2020-03-26 04:00:00 7.8 8 Sur 11 Sudeste 0 -- -- 96
2020-03-26 03:00:00 8.5 8 Sur 10 Sur 0 -- -- 95
2020-03-26 02:00:00 8.2 6 Sur 7 Sudeste 0 -- -- 96
2020-03-26 01:00:00 7.8 6 Sur 12 Sur 0 -- -- 93
2020-03-26 00:00:00 8.5 9 Sur 10 Sur 0 -- -- 94
2020-03-25 23:00:00 8.6 9 Sudeste 10 Sudeste 0 -- -- 92
2020-03-25 22:00:00 10.2 7 Sur 9 Sudeste 0 -- -- 89
2020-03-25 21:00:00 11.7 4 Sur 8 Nordeste 0 -- -- 87
2020-03-25 20:00:00 11.9 3 Norte 10 Nordeste 0 -- -- 85
2020-03-25 19:00:00 12.5 4 Noroeste 10 Nordeste 0 -- -- 85
2020-03-25 18:00:00 12.9 5 Nordeste 18 Nordeste 0 -- -- 85
2020-03-25 17:00:00 13.3 8 Nordeste 17 Nordeste 0 -- -- 86
2020-03-25 16:00:00 13.4 7 Nordeste 17 Nordeste 0 -- -- 86
2020-03-25 15:00:00 13.4 10 Nordeste 19 Nordeste 0 -- -- 87
2020-03-25 14:00:00 14.2 8 Norte 14 Norte 0 -- -- 85
2020-03-25 13:00:00 13.7 7 Noroeste 17 Norte 0 -- -- 87
2020-03-25 12:00:00 13.5 6 Noroeste 14 Noroeste 0 -- -- 90
2020-03-25 11:00:00 13.5 6 Oeste 10 Oeste 0 -- -- 91
2020-03-25 10:00:00 11.1 0 Calma 9 Noroeste 0 -- -- 97
2020-03-25 09:00:00 10.4 5 Oeste 11 Oeste 0 -- -- 97
2020-03-25 08:00:00 8.8 5 Sudeste 8 Sur 0 -- -- 97
2020-03-25 07:00:00 8.4 5 Sur 9 Sudeste 0 -- -- 97
2020-03-25 06:00:00 8.7 3 Sudeste 15 Sudeste 0 -- -- 96
2020-03-25 05:00:00 9.3 12 Sudeste 15 Sudeste 0 -- -- 96
2020-03-25 04:00:00 9.6 10 Sur 15 Sur 0 -- -- 95
2020-03-25 03:00:00 9.7 8 Sudeste 11 Sur 0 -- -- 95
2020-03-25 02:00:00 9.9 0 Calma 5 Sudeste 0 -- -- 92
2020-03-25 01:00:00 11.6 4 Sudoeste 9 Sudoeste 0 -- -- 89
2020-03-25 00:00:00 12.5 6 Sur 12 Sudeste 0 -- -- 90
2020-03-24 23:00:00 12.4 6 Sur 9 Sur 0 -- -- 91
2020-03-24 22:00:00 12.4 2 Sur 6 Sudoeste 0 -- -- 94
2020-03-24 21:00:00 12.3 5 Oeste 11 Oeste 0 -- -- 95
2020-03-24 20:00:00 11.9 6 Oeste 9 Noroeste 0 -- -- 94
2020-03-24 19:00:00 13 6 Noroeste 10 Noroeste 0 -- -- 92
2020-03-24 18:00:00 14.1 6 Noroeste 16 Nordeste 0 -- -- 88
2020-03-24 17:00:00 14.1 11 Nordeste 18 Nordeste 0 -- -- 86
2020-03-24 16:00:00 14.3 12 Nordeste 20 Norte 0 -- -- 85
2020-03-24 15:00:00 14.4 10 Nordeste 18 Nordeste 0 -- -- 84
2020-03-24 14:00:00 15 6 Norte 16 Norte 0 -- -- 83
2020-03-24 13:00:00 14.9 7 Norte 15 Noroeste 0 -- -- 79
2020-03-24 12:00:00 14.4 6 Noroeste 14 Nordeste 0 -- -- 83
2020-03-24 11:00:00 13.8 6 Este 13 Este 0 -- -- 80
2020-03-24 10:00:00 11.8 2 Norte 9 Noroeste 0 -- -- 92
2020-03-24 09:00:00 10.4 5 Sur 14 Sudeste 0 -- -- 97
2020-03-24 08:00:00 8.2 12 Sur 16 Sur 0 -- -- 97
2020-03-24 07:00:00 8 12 Sur 14 Sur 0 -- -- 97
2020-03-24 06:00:00 8.2 10 Sur 14 Sur 0 -- -- 97
2020-03-24 05:00:00 8 9 Sur 12 Sur 0 -- -- 96
2020-03-24 04:00:00 8.2 3 Sudeste 9 Sudeste 0 -- -- 96
2020-03-24 03:00:00 8.4 7 Sur 10 Sur 0 -- -- 95
2020-03-24 02:00:00 8.7 7 Sudeste 10 Sudeste 0 -- -- 94
2020-03-24 01:00:00 10 7 Sudeste 10 Sudeste 0 -- -- 94
2020-03-24 00:00:00 10.5 5 Sudeste 14 Este 0 -- -- 91
2020-03-23 23:00:00 11.4 8 Este 21 Este 0 -- -- 89
2020-03-23 22:00:00 11.8 12 Este 26 Este 0 -- -- 89
2020-03-23 21:00:00 11.8 17 Este 27 Este 0 -- -- 90
2020-03-23 20:00:00 11.7 12 Nordeste 25 Nordeste 0.2 -- -- 95
2020-03-23 19:00:00 11.7 15 Nordeste 27 Nordeste 0 -- -- 93
2020-03-23 18:00:00 11.6 14 Nordeste 27 Nordeste 0 -- -- 92
2020-03-23 17:00:00 11.6 14 Nordeste 28 Nordeste 0 -- -- 91
2020-03-23 16:00:00 11.5 16 Nordeste 29 Norte 0 -- -- 90
2020-03-23 15:00:00 11.3 17 Nordeste 28 Nordeste 0 -- -- 91
2020-03-23 14:00:00 11.1 15 Nordeste 29 Nordeste 0 -- -- 91
2020-03-23 13:00:00 11.3 15 Nordeste 29 Nordeste 0 -- -- 91
2020-03-23 12:00:00 11.3 14 Nordeste 25 Nordeste 0 -- -- 91
2020-03-23 11:00:00 11.5 12 Nordeste 27 Nordeste 0 -- -- 90
2020-03-23 10:00:00 11.5 14 Nordeste 26 Nordeste 0 -- -- 91
2020-03-23 09:00:00 11.5 13 Nordeste 26 Nordeste 0 -- -- 92
2020-03-23 08:00:00 11.4 13 Nordeste 22 Nordeste 0 -- -- 92
2020-03-23 07:00:00 11.3 12 Nordeste 24 Norte 0 -- -- 93
2020-03-23 06:00:00 11.3 13 Nordeste 24 Nordeste 0 -- -- 93
2020-03-23 05:00:00 11.4 12 Nordeste 25 Nordeste 0 -- -- 93
2020-03-23 04:00:00 11.5 13 Nordeste 22 Nordeste 0 -- -- 93
2020-03-23 03:00:00 11.7 12 Este 23 Nordeste 0 -- -- 92
2020-03-23 02:00:00 11.9 13 Nordeste 23 Este 0 -- -- 89
2020-03-23 01:00:00 12 12 Nordeste 22 Este 0 -- -- 90
2020-03-23 00:00:00 12.1 12 Nordeste 27 Este 0 -- -- 89
2020-03-22 23:00:00 12.3 14 Nordeste 27 Nordeste 0 -- -- 90
2020-03-22 22:00:00 12.3 16 Nordeste 29 Nordeste 0 -- -- 91
2020-03-22 21:00:00 12.5 11 Nordeste 24 Nordeste 0 -- -- 93
2020-03-22 20:00:00 12.7 12 Nordeste 22 Este 0 -- -- 92
2020-03-22 19:00:00 13.1 11 Nordeste 18 Este 0 -- -- 90
2020-03-22 18:00:00 13.5 10 Nordeste 18 Nordeste 0 -- -- 88
2020-03-22 17:00:00 13.8 9 Nordeste 17 Norte 0 -- -- 86
2020-03-22 16:00:00 14 9 Nordeste 15 Norte 0 -- -- 83
2020-03-22 15:00:00 14.1 9 Norte 16 Norte 0 -- -- 83
2020-03-22 14:00:00 15 8 Norte 17 Nordeste 0 -- -- 81
2020-03-22 13:00:00 14.6 5 Norte 11 Noroeste 0 -- -- 83
2020-03-22 12:00:00 13.7 4 Norte 12 Noroeste 0 -- -- 84
2020-03-22 11:00:00 13.6 6 Noroeste 11 Noroeste 0 -- -- 84
2020-03-22 10:00:00 12.9 7 Oeste 10 Oeste 0 -- -- 87
2020-03-22 09:00:00 11.8 4 Oeste 6 Sudoeste 0 -- -- 91
2020-03-22 08:00:00 11.4 3 Sur 7 Sur 0 -- -- 91
2020-03-22 07:00:00 11.5 3 Sudoeste 5 Sudoeste 0 -- -- 89
2020-03-22 06:00:00 11.4 4 Sudoeste 6 Oeste 0 -- -- 89
2020-03-22 05:00:00 11.3 3 Sudoeste 6 Oeste 0 -- -- 89
2020-03-22 04:00:00 11.3 4 Sudoeste 9 Oeste 0 -- -- 91
2020-03-22 03:00:00 11.5 6 Oeste 9 Noroeste 0 -- -- 91
2020-03-22 02:00:00 11.6 3 Noroeste 6 Noroeste 0 -- -- 91
2020-03-22 01:00:00 11.6 3 Noroeste 8 Noroeste 0 -- -- 90
2020-03-22 00:00:00 11.8 2 Oeste 7 Oeste 0 -- -- 90
2020-03-21 23:00:00 11.8 4 Oeste 8 Noroeste 0 -- -- 91
2020-03-21 22:00:00 11.9 5 Noroeste 9 Noroeste 0 -- -- 92
2020-03-21 21:00:00 11.9 4 Oeste 11 Oeste 0 -- -- 92
2020-03-21 20:00:00 12 3 Sudoeste 6 Sudoeste 0 -- -- 91
2020-03-21 19:00:00 12.2 4 Norte 12 Noroeste 0 -- -- 91
2020-03-21 18:00:00 12.4 0 Calma 2 Noroeste 0 -- -- 89
2020-03-21 17:00:00 12.8 0 Calma 2 Noroeste 0 -- -- 87
2020-03-21 16:00:00 13.1 0 Calma 2 Noroeste 0 -- -- 87
2020-03-21 15:00:00 13.2 0 Calma 2 Norte 0 -- -- 85
2020-03-21 14:00:00 12.9 0 Calma 2 Noroeste 0 -- -- 87
2020-03-21 13:00:00 12.6 0 Calma 2 Norte 0 -- -- 89
2020-03-21 12:00:00 12.4 0 Calma 0 Calma 0 -- -- 91
2020-03-21 11:00:00 12.3 0 Calma 0 Calma 0 -- -- 92
2020-03-21 10:00:00 11.9 0 Calma 0 Calma 0 -- -- 94
2020-03-21 09:00:00 11.4 0 Calma 0 Calma 0 -- -- 96
2020-03-21 08:00:00 11.2 0 Calma 0 Calma 0 -- -- 96
2020-03-21 07:00:00 11.3 0 Calma 0 Calma 0 -- -- 97
2020-03-21 06:00:00 11.4 0 Calma 0 Calma 0 -- -- 97
2020-03-21 05:00:00 11.5 0 Calma 0 Calma 0 -- -- 96
2020-03-21 04:00:00 11.6 0 Calma 0 Calma 0 -- -- 97
2020-03-21 03:00:00 11.7 0 Calma 0 Calma 0 -- -- 97
2020-03-21 02:00:00 11.6 0 Calma 0 Calma 0 -- -- 97
2020-03-21 01:00:00 11.4 0 Calma 0 Calma 0 -- -- 96
2020-03-21 00:00:00 11.8 0 Calma 2 Este 0 -- -- 96
2020-03-20 23:00:00 12 0 Calma 0 Calma 0 -- -- 96
2020-03-20 22:00:00 12 0 Calma 0 Calma 0 -- -- 96
2020-03-20 21:00:00 12 0 Calma 7 Nordeste 0 -- -- 96
2020-03-20 20:00:00 12.1 3 Este 7 Nordeste 0.2 -- -- 94
2020-03-20 19:00:00 12.2 3 Nordeste 12 Nordeste 0 -- -- 93
2020-03-20 18:00:00 12.7 6 Nordeste 14 Nordeste 0 -- -- 92
2020-03-20 17:00:00 13.2 7 Nordeste 13 Este 0 -- -- 91
2020-03-20 16:00:00 13.6 7 Nordeste 12 Nordeste 0 -- -- 90
2020-03-20 15:00:00 13.3 7 Nordeste 14 Este 0 -- -- 92
2020-03-20 14:00:00 12.8 8 Nordeste 14 Nordeste 0 -- -- 94
2020-03-20 13:00:00 13.3 5 Este 10 Este 0.2 -- -- 93
2020-03-20 12:00:00 12.4 7 Este 11 Este 0 -- -- 93
2020-03-20 11:00:00 12.3 6 Este 8 Nordeste 0 -- -- 94
2020-03-20 10:00:00 11.6 5 Sur 9 Sudeste 0 -- -- 96
2020-03-20 09:00:00 11.3 6 Sur 10 Sur 0 -- -- 97
2020-03-20 08:00:00 11.1 5 Sur 8 Sur 0 -- -- 97
2020-03-20 07:00:00 11 5 Sur 8 Sudeste 0 -- -- 97
2020-03-20 06:00:00 11.1 5 Sudeste 8 Sudeste 0 -- -- 97
2020-03-20 05:00:00 11.1 2 Sur 7 Sur 0 -- -- 97
2020-03-20 04:00:00 11.3 4 Sudeste 8 Este 0 -- -- 97
2020-03-20 03:00:00 11.4 4 Sudeste 7 Sudeste 0 -- -- 97
2020-03-20 02:00:00 11.5 4 Sudeste 9 Este 0 -- -- 97
2020-03-20 01:00:00 11.5 5 Este 8 Este 0 -- -- 97
2020-03-20 00:00:00 11.4 2 Este 11 Este 0 -- -- 97
2020-03-19 23:00:00 11.5 5 Este 14 Este 0 -- -- 97
2020-03-19 22:00:00 11.3 5 Nordeste 23 Sur 1.8 -- -- 97
2020-03-19 21:00:00 11.3 2 Sur 10 Noroeste 0.6 -- -- 96
2020-03-19 20:00:00 11.4 3 Sudoeste 12 Este 0 -- -- 95
2020-03-19 19:00:00 11.7 9 Este 16 Este 0 -- -- 93
2020-03-19 18:00:00 11.8 8 Nordeste 13 Este 0 -- -- 93
2020-03-19 17:00:00 12 9 Nordeste 15 Nordeste 0 -- -- 92
2020-03-19 16:00:00 12.3 9 Nordeste 17 Nordeste 0 -- -- 91
2020-03-19 15:00:00 12.6 9 Nordeste 15 Nordeste 0 -- -- 89
2020-03-19 14:00:00 12.9 8 Nordeste 15 Norte 0 -- -- 88
2020-03-19 13:00:00 12.9 8 Nordeste 13 Nordeste 0 -- -- 88
2020-03-19 12:00:00 12.1 6 Este 15 Sudeste 0 -- -- 91
2020-03-19 11:00:00 11.5 6 Sudeste 10 Este 0 -- -- 93
2020-03-19 10:00:00 11.1 5 Sudeste 11 Sur 0 -- -- 96
2020-03-19 09:00:00 10.8 5 Sur 9 Sudeste 0 -- -- 96
2020-03-19 08:00:00 10.8 3 Sudeste 9 Sur 0 -- -- 95
2020-03-19 07:00:00 10.7 4 Sudeste 8 Sur 0 -- -- 95
2020-03-19 06:00:00 10.9 6 Sur 9 Sur 0 -- -- 94
2020-03-19 05:00:00 11 2 Sur 10 Este 0 -- -- 94
2020-03-19 04:00:00 11.1 4 Sudeste 7 Sudeste 0 -- -- 94
2020-03-19 03:00:00 11.3 3 Sudeste 8 Este 0 -- -- 94
2020-03-19 02:00:00 11.4 0 Calma 6 Este 0 -- -- 94
2020-03-19 01:00:00 11.5 0 Calma 4 Sudeste 0 -- -- 93
2020-03-19 00:00:00 11.5 2 Sudeste 9 Este 0 -- -- 92
2020-03-18 23:00:00 11.7 5 Este 8 Sudeste 0 -- -- 91
2020-03-18 22:00:00 11.7 3 Nordeste 7 Nordeste 0 -- -- 91
2020-03-18 21:00:00 11.7 5 Nordeste 10 Nordeste 0 -- -- 91
2020-03-18 20:00:00 11.8 0 Calma 11 Nordeste 0 -- -- 90
2020-03-18 19:00:00 12 4 Nordeste 12 Este 0 -- -- 89
2020-03-18 18:00:00 12.2 9 Nordeste 14 Nordeste 0 -- -- 87
2020-03-18 17:00:00 12.3 10 Nordeste 17 Nordeste 0 -- -- 88
2020-03-18 16:00:00 12.6 10 Nordeste 19 Nordeste 0 -- -- 87
2020-03-18 15:00:00 13 12 Nordeste 19 Nordeste 0 -- -- 86
2020-03-18 14:00:00 13.8 12 Nordeste 20 Norte 0 -- -- 85
2020-03-18 13:00:00 13.2 12 Nordeste 20 Nordeste 0 -- -- 85
2020-03-18 12:00:00 14.2 12 Nordeste 19 Este 0 -- -- 80
2020-03-18 11:00:00 13.6 8 Este 12 Este 0 -- -- 80
2020-03-18 10:00:00 11.4 8 Sur 13 Sudeste 0 -- -- 90
2020-03-18 09:00:00 9.4 10 Sudeste 14 Sudeste 0 -- -- 96
2020-03-18 08:00:00 7.9 11 Sudeste 17 Sudeste 0 -- -- 97
2020-03-18 07:00:00 7.1 10 Sur 13 Sudeste 0 -- -- 97
2020-03-18 06:00:00 7.2 7 Sur 12 Sur 0 -- -- 96
2020-03-18 05:00:00 7.3 10 Sur 12 Sur 0 -- -- 97
2020-03-18 04:00:00 7.4 9 Sur 10 Sur 0 -- -- 96
2020-03-18 03:00:00 8 7 Sur 10 Sudeste 0 -- -- 96
2020-03-18 02:00:00 8.1 7 Sur 11 Sur 0 -- -- 95
2020-03-18 01:00:00 7.7 3 Sur 6 Sur 0 -- -- 94
2020-03-18 00:00:00 8.6 4 Sur 7 Sudoeste 0 -- -- 95
2020-03-17 23:00:00 8.1 3 Sudoeste 6 Sudoeste 0 -- -- 93
2020-03-17 22:00:00 8.5 3 Sudoeste 7 Sur 0 -- -- 91
2020-03-17 21:00:00 10.3 3 Sur 12 Sudeste 0 -- -- 88
2020-03-17 20:00:00 11.4 9 Este 22 Nordeste 0 -- -- 86
2020-03-17 19:00:00 12.2 14 Este 31 Este 0 -- -- 85
2020-03-17 18:00:00 12.4 19 Este 39 Nordeste 0 -- -- 84
2020-03-17 17:00:00 12.9 25 Este 42 Este 0 -- -- 78
2020-03-17 16:00:00 13 22 Este 41 Este 0 -- -- 79
2020-03-17 15:00:00 12.8 21 Nordeste 40 Este 0 -- -- 82
2020-03-17 14:00:00 12.9 19 Nordeste 34 Nordeste 0 -- -- 80
2020-03-17 13:00:00 13 22 Nordeste 37 Nordeste 0 -- -- 77
2020-03-17 12:00:00 13.4 21 Nordeste 33 Este 0 -- -- 74
2020-03-17 11:00:00 13 19 Nordeste 35 Nordeste 0 -- -- 75
2020-03-17 10:00:00 11.4 17 Este 26 Nordeste 0 -- -- 78
2020-03-17 09:00:00 10.2 10 Este 19 Nordeste 0 -- -- 82
2020-03-17 08:00:00 8.4 6 Este 12 Este 0 -- -- 84
2020-03-17 07:00:00 8 8 Sudeste 15 Este 0 -- -- 83
2020-03-17 06:00:00 8.3 5 Sudeste 11 Este 0 -- -- 80
2020-03-17 05:00:00 8.9 6 Sudeste 15 Este 0 -- -- 79
2020-03-17 04:00:00 9.3 10 Este 28 Nordeste 0 -- -- 77
2020-03-17 03:00:00 10.4 22 Este 37 Este 0 -- -- 70
2020-03-17 02:00:00 10.3 19 Este 36 Nordeste 0 -- -- 72
2020-03-17 01:00:00 10.3 20 Este 35 Este 0 -- -- 69
2020-03-17 00:00:00 10.2 17 Este 33 Este 0 -- -- 72
2020-03-16 23:00:00 10.4 19 Nordeste 35 Este 0 -- -- 73
2020-03-16 22:00:00 9.9 14 Nordeste 30 Nordeste 0.2 -- -- 76
2020-03-16 21:00:00 9.7 19 Este 30 Nordeste 0 -- -- 80
2020-03-16 20:00:00 9.8 18 Este 33 Nordeste 0 -- -- 80
2020-03-16 19:00:00 10.7 16 Nordeste 30 Nordeste 0 -- -- 71
2020-03-16 18:00:00 11.3 17 Nordeste 34 Este 0 -- -- 71
2020-03-16 17:00:00 11.7 18 Nordeste 34 Nordeste 0 -- -- 71
2020-03-16 16:00:00 11.9 19 Nordeste 36 Nordeste 0 -- -- 70
2020-03-16 15:00:00 12.1 19 Nordeste 39 Nordeste 0 -- -- 72
2020-03-16 14:00:00 12.8 19 Nordeste 36 Norte 0 -- -- 72
2020-03-16 13:00:00 12.7 16 Norte 32 Nordeste 0 -- -- 70
2020-03-16 12:00:00 11.9 12 Norte 30 Norte 0 -- -- 71
2020-03-16 11:00:00 9.8 21 Nordeste 43 Este 0.2 -- -- 76
2020-03-16 10:00:00 9.5 10 Norte 32 Norte 0.6 -- -- 81
2020-03-16 09:00:00 9.6 14 Norte 33 Norte 0.6 -- -- 78
2020-03-16 08:00:00 9.6 13 Norte 31 Nordeste 0 -- -- 78
2020-03-16 07:00:00 8.6 6 Norte 33 Norte 0 -- -- 82
2020-03-16 06:00:00 9.1 14 Norte 32 Norte 0 -- -- 76
2020-03-16 05:00:00 9.2 10 Norte 34 Nordeste 0.4 -- -- 76
2020-03-16 04:00:00 9.3 11 Norte 35 Noroeste 0 -- -- 77
2020-03-16 03:00:00 9.6 14 Norte 27 Norte 0 -- -- 74
2020-03-16 02:00:00 9 12 Norte 29 Norte 0.2 -- -- 78
2020-03-16 01:00:00 8.9 9 Norte 23 Norte 0.8 -- -- 80
2020-03-16 00:00:00 8.6 8 Norte 22 Noroeste 0 -- -- 80
2020-03-15 23:00:00 7.6 6 Noroeste 30 Oeste 0.2 -- -- 83
2020-03-15 22:00:00 6.4 4 Sudoeste 21 Sur 1.8 -- -- 90
2020-03-15 21:00:00 6.9 7 Sudeste 20 Sur 0.2 -- -- 87
2020-03-15 20:00:00 6.9 15 Sur 21 Sur 0 -- -- 89
2020-03-15 19:00:00 7.2 9 Sur 35 Oeste 0.2 -- -- 87
2020-03-15 18:00:00 7.2 18 Sur 27 Sur 0.4 -- -- 86
2020-03-15 17:00:00 7.4 14 Sudoeste 24 Sur 1 -- -- 86
2020-03-15 16:00:00 7.1 9 Oeste 22 Oeste 3.8 -- -- 90
2020-03-15 15:00:00 7.9 16 Oeste 39 Noroeste 1.6 -- -- 90
2020-03-15 14:00:00 8.9 19 Noroeste 40 Noroeste 1 -- -- 91
2020-03-15 13:00:00 9.6 19 Noroeste 44 Noroeste 1.6 -- -- 93
2020-03-15 12:00:00 13.9 19 Oeste 47 Sur 0 -- -- 71
2020-03-15 11:00:00 13.9 29 Sur 51 Sur 0 -- -- 67
2020-03-15 10:00:00 10.6 37 Sur 53 Sur 0 -- -- 79
2020-03-15 09:00:00 8.5 22 Sur 32 Sur 0 -- -- 85
2020-03-15 08:00:00 8.2 11 Sudoeste 26 Sudoeste 0 -- -- 88
2020-03-15 07:00:00 6.3 9 Sur 14 Sudeste 0 -- -- 91
2020-03-15 06:00:00 6.9 11 Sur 14 Sur 0 -- -- 90
2020-03-15 05:00:00 7.9 6 Oeste 15 Oeste 0 -- -- 88
2020-03-15 04:00:00 6 5 Oeste 12 Oeste 0 -- -- 90
2020-03-15 03:00:00 6.9 7 Sur 13 Sur 0 -- -- 91
2020-03-15 02:00:00 6.6 10 Sur 13 Sudeste 0 -- -- 94
2020-03-15 01:00:00 6.2 6 Sur 10 Sur 0 -- -- 93
2020-03-15 00:00:00 6.7 5 Sur 12 Sur 0 -- -- 92
2020-03-14 23:00:00 7 4 Sur 10 Sur 0 -- -- 91
2020-03-14 22:00:00 7.2 5 Sur 8 Sur 0 -- -- 90
2020-03-14 21:00:00 8 5 Sur 8 Sur 0 -- -- 86
2020-03-14 20:00:00 10.3 5 Sur 9 Nordeste 0 -- -- 76
2020-03-14 19:00:00 12.8 6 Nordeste 17 Este 0 -- -- 67
2020-03-14 18:00:00 14.2 9 Este 19 Nordeste 0 -- -- 63
2020-03-14 17:00:00 14.7 13 Este 18 Este 0 -- -- 59
2020-03-14 16:00:00 15.1 10 Nordeste 16 Nordeste 0 -- -- 57
2020-03-14 15:00:00 15.1 8 Nordeste 14 Norte 0 -- -- 56
2020-03-14 14:00:00 14.9 9 Norte 15 Norte 0 -- -- 63
2020-03-14 13:00:00 14.4 9 Noroeste 15 Noroeste 0 -- -- 61
2020-03-14 12:00:00 15.4 6 Nordeste 13 Sudeste 0 -- -- 60
2020-03-14 11:00:00 14.4 11 Sudeste 19 Sur 0 -- -- 64
2020-03-14 10:00:00 13.1 12 Sur 18 Sudeste 0 -- -- 67
2020-03-14 09:00:00 10.7 11 Sur 14 Sur 0 -- -- 74
2020-03-14 08:00:00 8.8 10 Sur 18 Sur 0 -- -- 78
2020-03-14 07:00:00 9.9 13 Sur 20 Sur 0 -- -- 74
2020-03-14 06:00:00 8.6 10 Sur 14 Sur 0 -- -- 80
2020-03-14 05:00:00 9.1 8 Sudoeste 15 Oeste 0 -- -- 81
2020-03-14 04:00:00 9.7 7 Oeste 11 Oeste 0 -- -- 83
2020-03-14 03:00:00 10.3 4 Oeste 13 Sur 0 -- -- 77
2020-03-14 02:00:00 9.4 3 Sur 5 Sur 0 -- -- 91
2020-03-14 01:00:00 9.5 4 Sur 5 Sur 0 -- -- 89
2020-03-14 00:00:00 9.9 5 Sur 6 Sur 0 -- -- 88
2020-03-13 23:00:00 10.4 3 Oeste 5 Noroeste 0 -- -- 86
2020-03-13 22:00:00 10.6 2 Noroeste 6 Noroeste 0 -- -- 84
2020-03-13 21:00:00 11 3 Nordeste 13 Norte 0 -- -- 82
2020-03-13 20:00:00 11.3 4 Nordeste 13 Nordeste 0 -- -- 82
2020-03-13 19:00:00 11.7 8 Nordeste 17 Nordeste 0 -- -- 80
2020-03-13 18:00:00 12 10 Nordeste 21 Nordeste 0 -- -- 77
2020-03-13 17:00:00 12.5 14 Este 24 Este 0 -- -- 74
2020-03-13 16:00:00 12.7 14 Nordeste 28 Nordeste 0 -- -- 75
2020-03-13 15:00:00 12.4 16 Nordeste 28 Nordeste 0 -- -- 76
2020-03-13 14:00:00 12.4 14 Nordeste 30 Nordeste 0 -- -- 77
2020-03-13 13:00:00 12.3 16 Nordeste 28 Este 0 -- -- 79
2020-03-13 12:00:00 12.5 14 Nordeste 32 Nordeste 0 -- -- 80
2020-03-13 11:00:00 11.3 17 Este 30 Este 0 -- -- 82
2020-03-13 10:00:00 11 14 Este 28 Este 0 -- -- 83
2020-03-13 09:00:00 10 16 Nordeste 30 Este 0 -- -- 86
2020-03-13 08:00:00 9.6 19 Este 33 Este 0.2 -- -- 88
2020-03-13 07:00:00 9.4 11 Este 19 Este 0 -- -- 90
2020-03-13 06:00:00 10.1 18 Este 32 Este 0 -- -- 81
2020-03-13 05:00:00 10.2 12 Este 27 Este 0 -- -- 80
2020-03-13 04:00:00 10.3 15 Nordeste 30 Nordeste 0 -- -- 75
2020-03-13 03:00:00 10.4 17 Este 27 Nordeste 0 -- -- 75
2020-03-13 02:00:00 10.1 14 Nordeste 28 Este 0 -- -- 81
2020-03-13 01:00:00 10.1 12 Nordeste 24 Este 0 -- -- 83
2020-03-13 00:00:00 10.3 9 Este 23 Nordeste 0 -- -- 80
2020-03-12 23:00:00 10.3 10 Nordeste 20 Nordeste 0 -- -- 78
2020-03-12 22:00:00 10.1 10 Nordeste 18 Este 0 -- -- 80
2020-03-12 21:00:00 9.6 6 Sudeste 20 Este 0 -- -- 90
2020-03-12 20:00:00 9.6 8 Nordeste 21 Nordeste 0 -- -- 90
2020-03-12 19:00:00 9.8 8 Nordeste 17 Nordeste 0.2 -- -- 90
2020-03-12 18:00:00 9.5 8 Norte 23 Nordeste 1.2 -- -- 95
2020-03-12 17:00:00 10.1 7 Norte 23 Norte 0.4 -- -- 94
2020-03-12 16:00:00 11.3 9 Norte 22 Norte 0 -- -- 90
2020-03-12 15:00:00 12.3 10 Norte 21 Norte 0 -- -- 85
2020-03-12 14:00:00 12.8 11 Norte 22 Norte 0 -- -- 84
2020-03-12 13:00:00 13.6 10 Norte 17 Norte 0 -- -- 82
2020-03-12 12:00:00 13.8 8 Norte 15 Norte 0 -- -- 83
2020-03-12 11:00:00 13.6 5 Noroeste 11 Noroeste 0 -- -- 83
2020-03-12 10:00:00 12.9 5 Noroeste 10 Noroeste 0 -- -- 87
2020-03-12 09:00:00 12.2 5 Oeste 8 Oeste 0 -- -- 90
2020-03-12 08:00:00 11.4 4 Oeste 8 Noroeste 0 -- -- 89
2020-03-12 07:00:00 11.4 3 Sudoeste 9 Oeste 0 -- -- 91
2020-03-12 06:00:00 11 4 Sur 9 Sur 0 -- -- 90
2020-03-12 05:00:00 10.5 4 Sudeste 6 Sudeste 0 -- -- 92
2020-03-12 04:00:00 10.1 0 Calma 9 Sur 0 -- -- 90
2020-03-12 03:00:00 11.3 9 Sur 11 Sudoeste 0 -- -- 91
2020-03-12 02:00:00 12.4 3 Sur 9 Sur 0 -- -- 88
2020-03-12 01:00:00 13 6 Sur 8 Sudeste 0 -- -- 88
2020-03-12 00:00:00 13.3 3 Oeste 5 Sudoeste 0 -- -- 88
2020-03-11 23:00:00 13.4 3 Oeste 6 Oeste 0 -- -- 88
2020-03-11 22:00:00 13.6 5 Oeste 7 Oeste 0 -- -- 87
2020-03-11 21:00:00 14.1 2 Sur 15 Sudeste 0 -- -- 83
2020-03-11 20:00:00 14.1 9 Sudeste 17 Este 0 -- -- 82
2020-03-11 19:00:00 14.3 9 Este 17 Este 0 -- -- 81
2020-03-11 18:00:00 14.6 9 Este 17 Nordeste 0 -- -- 79
2020-03-11 17:00:00 15.3 10 Nordeste 16 Nordeste 0 -- -- 81
2020-03-11 16:00:00 15.7 9 Nordeste 15 Nordeste 0 -- -- 78
2020-03-11 15:00:00 15.4 12 Nordeste 19 Nordeste 0 -- -- 78
2020-03-11 14:00:00 16.2 10 Nordeste 16 Nordeste 0 -- -- 76
2020-03-11 13:00:00 16.4 9 Nordeste 15 Este 0 -- -- 73
2020-03-11 12:00:00 15.8 7 Norte 14 Norte 0 -- -- 78
2020-03-11 11:00:00 15.9 6 Nordeste 12 Nordeste 0 -- -- 74
2020-03-11 10:00:00 14.9 6 Sudeste 14 Sur 0 -- -- 79
2020-03-11 09:00:00 12.3 9 Sur 14 Sudeste 0 -- -- 90
2020-03-11 08:00:00 9.9 10 Sur 14 Sudeste 0 -- -- 93
2020-03-11 07:00:00 10 10 Sur 13 Sudeste 0 -- -- 93
2020-03-11 06:00:00 9.1 8 Sudeste 10 Sur 0 -- -- 93
2020-03-11 05:00:00 9.9 4 Sudeste 6 Sudeste 0 -- -- 89
2020-03-11 04:00:00 11.8 4 Sur 18 Sur 0 -- -- 84
2020-03-11 03:00:00 11.7 4 Sudoeste 15 Sur 0 -- -- 88
2020-03-11 02:00:00 11.8 0 Calma 18 Sudoeste 0 -- -- 82
2020-03-11 01:00:00 12.2 11 Sudoeste 17 Sudoeste 0 -- -- 86
2020-03-11 00:00:00 11.6 3 Noroeste 14 Sur 0 -- -- 87
2020-03-10 23:00:00 12.2 6 Sur 13 Sudoeste 0 -- -- 86
2020-03-10 22:00:00 11 8 Sudeste 12 Sudeste 0 -- -- 92
2020-03-10 21:00:00 11.3 6 Sudeste 10 Sur 0 -- -- 89
2020-03-10 20:00:00 13 0 Calma 12 Sudeste 0 -- -- 84
2020-03-10 19:00:00 15.4 7 Sudeste -- -- -- -- -- 76
2020-03-10 18:00:00 -- -- -- -- -- -- -- -- --
2020-03-10 17:00:00 -- -- -- -- -- -- -- -- --
2020-03-10 16:00:00 -- -- -- -- -- -- -- -- --
2020-03-10 15:00:00 16.3 7 Nordeste 13 Nordeste 0 -- -- 63
2020-03-10 14:00:00 16 9 Nordeste -- -- -- -- -- 65
2020-03-10 13:00:00 -- -- -- -- -- -- -- -- --
2020-03-10 12:00:00 -- -- -- -- -- -- -- -- --
2020-03-10 11:00:00 -- -- -- -- -- -- -- -- --
2020-03-10 10:00:00 13.5 3 Noroeste 12 Oeste 0 -- -- 71
2020-03-10 09:00:00 11.4 6 Sur 27 Sur 0 -- -- 74
2020-03-10 08:00:00 9 5 Este 14 Sur 0 -- -- 79
2020-03-10 07:00:00 11.3 7 Oeste 43 Oeste 0 -- -- 71
2020-03-10 06:00:00 12.5 8 Noroeste 25 Oeste 0 -- -- 69
2020-03-10 05:00:00 8.8 0 Calma 7 Sudeste 0 -- -- 90
2020-03-10 04:00:00 8.9 5 Sudeste 9 Sur 0 -- -- 89
2020-03-10 03:00:00 9.9 0 Calma 9 Oeste 0 -- -- 86
2020-03-10 02:00:00 9.8 4 Noroeste 8 Norte 0 -- -- 83
2020-03-10 01:00:00 10.1 3 Oeste 8 Sudoeste 0 -- -- 84
2020-03-10 00:00:00 9.4 3 Sur 9 Sudeste 0 -- -- 90
2020-03-09 23:00:00 9.4 5 Sudeste 13 Sur 0 -- -- 92
2020-03-09 22:00:00 10.1 9 Sur 12 Sur 0 -- -- 90
2020-03-09 21:00:00 10.6 8 Sudeste 10 Sudeste 0 -- -- 90
2020-03-09 20:00:00 11.1 8 Sudeste 9 Sudeste 0 -- -- 86
2020-03-09 19:00:00 12.9 4 Oeste 11 Noroeste 0 -- -- 79
2020-03-09 18:00:00 14.9 6 Este 9 Este 0 -- -- 70
2020-03-09 17:00:00 14.4 8 Noroeste 16 Noroeste 0 -- -- 72
2020-03-09 16:00:00 14.7 8 Norte 18 Norte 0 -- -- 68
2020-03-09 15:00:00 14.4 10 Noroeste 25 Norte 0 -- -- 74
2020-03-09 14:00:00 16 18 Oeste 30 Sudoeste 0 -- -- 56
2020-03-09 13:00:00 15.4 14 Oeste 27 Sudoeste 0 -- -- 61
2020-03-09 12:00:00 14 15 Sudoeste 28 Sur 0 -- -- 64
2020-03-09 11:00:00 12.2 17 Sur 29 Sur 0 -- -- 73
2020-03-09 10:00:00 10.9 16 Sur 25 Sudoeste 0 -- -- 75
2020-03-09 09:00:00 10.6 14 Sudoeste 27 Sur 0 -- -- 73
2020-03-09 08:00:00 9.5 13 Sur 22 Sur 0 -- -- 78
2020-03-09 07:00:00 9.7 9 Sur 16 Sudoeste 0 -- -- 78
2020-03-09 06:00:00 9.6 7 Sudoeste 19 Sur 0 -- -- 77
2020-03-09 05:00:00 10.1 8 Sudoeste 17 Sur 0 -- -- 73
2020-03-09 04:00:00 10.1 9 Sur 18 Oeste 0 -- -- 72
2020-03-09 03:00:00 10.6 10 Sudoeste 22 Sudoeste 0 -- -- 70
2020-03-09 02:00:00 10.8 11 Sudoeste 27 Sudoeste 0 -- -- 71
2020-03-09 01:00:00 10.9 13 Sudoeste 23 Sudoeste 0 -- -- 76
2020-03-09 00:00:00 11.7 9 Sudoeste 23 Sudoeste 0 -- -- 71
2020-03-08 23:00:00 12.2 13 Sudoeste 25 Oeste 0 -- -- 67
2020-03-08 22:00:00 12.3 14 Sudoeste 30 Oeste 0 -- -- 67
2020-03-08 21:00:00 12.6 13 Oeste 35 Oeste 0 -- -- 67
2020-03-08 20:00:00 13.2 14 Sudoeste 33 Oeste 0 -- -- 63
2020-03-08 19:00:00 13.6 18 Oeste 35 Oeste 0 -- -- 60
2020-03-08 18:00:00 14.8 22 Oeste 40 Noroeste 0 -- -- 62
2020-03-08 17:00:00 15.2 26 Noroeste 44 Oeste 0 -- -- 64
2020-03-08 16:00:00 17.6 19 Oeste 32 Oeste 0 -- -- 65
2020-03-08 15:00:00 16.3 21 Sudoeste 40 Oeste 0 -- -- 64
2020-03-08 14:00:00 16.3 26 Oeste 46 Oeste 0 -- -- 66
2020-03-08 13:00:00 16.2 21 Oeste 42 Sudoeste 0 -- -- 65
2020-03-08 12:00:00 15.5 17 Sudoeste 37 Sudoeste 0 -- -- 67
2020-03-08 11:00:00 13.4 24 Sur 51 Sur 0 -- -- 70
2020-03-08 10:00:00 12 28 Sur 60 Sur 0 -- -- 74
2020-03-08 09:00:00 11.7 42 Sur 63 Sur 0 -- -- 72
2020-03-08 08:00:00 11.8 35 Sur 60 Sur 0 -- -- 69
2020-03-08 07:00:00 11.9 32 Sur 60 Sur 0 -- -- 67
2020-03-08 06:00:00 11.9 37 Sur 65 Sur 0 -- -- 66
2020-03-08 05:00:00 11.6 39 Sur 61 Sur 0 -- -- 65
2020-03-08 04:00:00 11.4 28 Sur 46 Sur 0 -- -- 65
2020-03-08 03:00:00 11.2 13 Sur 57 Sur -- -- -- 65
2020-03-08 02:00:00 10.8 33 Sur 54 Sur 0 -- -- 68
2020-03-08 01:00:00 10.4 9 Sudoeste 24 Sudoeste 0 -- -- 71
2020-03-08 00:00:00 9.7 6 Sudoeste 21 Sudoeste 0 -- -- 74
2020-03-07 23:00:00 11 11 Sudoeste 22 Sudoeste 0 -- -- 72
2020-03-07 22:00:00 10.4 12 Sudoeste 24 Oeste 0 -- -- 78
2020-03-07 21:00:00 8.6 8 Sur 14 Sudeste 0 -- -- 85
2020-03-07 20:00:00 9.6 9 Sur 12 Sudeste 0 -- -- 83
2020-03-07 19:00:00 12.9 6 Sudeste 11 Nordeste 0 -- -- 72
2020-03-07 18:00:00 13.8 7 Nordeste 12 Nordeste 0 -- -- 64
2020-03-07 17:00:00 14.1 7 Norte 17 Norte 0 -- -- 67
2020-03-07 16:00:00 15.3 6 Nordeste 14 Norte 0 -- -- 63
2020-03-07 15:00:00 15 6 Norte 14 Nordeste 0 -- -- 63
2020-03-07 14:00:00 14.8 6 Noroeste 14 Norte 0 -- -- 61
2020-03-07 13:00:00 13.7 9 Noroeste 21 Oeste 0 -- -- 65
2020-03-07 12:00:00 14.3 11 Oeste 22 Oeste 0 -- -- 63
2020-03-07 11:00:00 12.7 9 Sur 17 Sudoeste 0 -- -- 73
2020-03-07 10:00:00 11.3 8 Sudoeste 23 Sur 0 -- -- 73
2020-03-07 09:00:00 10.4 16 Sur 24 Sur 0 -- -- 77
2020-03-07 08:00:00 10.5 8 Sudoeste 15 Sudoeste 0 -- -- 77
2020-03-07 07:00:00 10.7 6 Sur 13 Sudoeste 0 -- -- 77
2020-03-07 06:00:00 10.4 5 Sudoeste 10 Sudoeste 0 -- -- 82
2020-03-07 05:00:00 10.2 4 Sudoeste 10 Sur 0 -- -- 85
2020-03-07 04:00:00 10.8 8 Oeste 15 Oeste 0 -- -- 86
2020-03-07 03:00:00 10.7 9 Oeste 19 Oeste 0 -- -- 88
2020-03-07 02:00:00 10.7 8 Oeste 17 Sur 0.2 -- -- 83
2020-03-07 01:00:00 10.8 9 Sur 17 Sur 0 -- -- 78
2020-03-07 00:00:00 11.1 8 Sudoeste 17 Sudoeste 0 -- -- 77
2020-03-06 23:00:00 11.1 9 Sudoeste 16 Sudoeste 0 -- -- 77
2020-03-06 22:00:00 10.4 8 Sudoeste 22 Sudoeste 0 -- -- 79
2020-03-06 21:00:00 10.3 10 Sudoeste 24 Oeste 0 -- -- 76
2020-03-06 20:00:00 10.4 5 Oeste 14 Oeste 0 -- -- 69
2020-03-06 19:00:00 10.7 6 Sudoeste 20 Oeste 0 -- -- 69
2020-03-06 18:00:00 11.1 15 Oeste 31 Noroeste 0 -- -- 66
2020-03-06 17:00:00 11.3 21 Noroeste 40 Noroeste 0 -- -- 67
2020-03-06 16:00:00 11.8 23 Noroeste 40 Noroeste 0 -- -- 66
2020-03-06 15:00:00 11.8 23 Noroeste 45 Noroeste 0 -- -- 69
2020-03-06 14:00:00 12 26 Noroeste 47 Noroeste 0 -- -- 59
2020-03-06 13:00:00 11.6 23 Noroeste 42 Noroeste 0 -- -- 64
2020-03-06 12:00:00 9 21 Noroeste 49 Noroeste 0.2 -- -- 83
2020-03-06 11:00:00 9.6 21 Oeste 58 Noroeste 0.2 -- -- 67
2020-03-06 10:00:00 8.8 25 Oeste 57 Noroeste 0.4 -- -- 74
2020-03-06 09:00:00 8.1 21 Oeste 44 Oeste 0 -- -- 78
2020-03-06 08:00:00 7.9 26 Oeste 51 Oeste 0.4 -- -- 84
2020-03-06 07:00:00 7.7 26 Oeste 62 Oeste 0.6 -- -- 80
2020-03-06 06:00:00 8.2 21 Oeste 52 Noroeste 0.8 -- -- 79
2020-03-06 05:00:00 9.2 22 Sudoeste 37 Oeste 0 -- -- 68
2020-03-06 04:00:00 8.7 30 Oeste 45 Oeste 0 -- -- 76
2020-03-06 03:00:00 9.2 24 Oeste 39 Oeste 0.2 -- -- 72
2020-03-06 02:00:00 8.7 20 Oeste 45 Oeste 0.6 -- -- 81
2020-03-06 01:00:00 9.4 19 Oeste 37 Sudoeste 0.6 -- -- 79
2020-03-06 00:00:00 9.2 23 Oeste 42 Sudoeste 2.8 -- -- 84
2020-03-05 23:00:00 9.6 21 Sudoeste 37 Sudoeste 2.6 -- -- 84
2020-03-05 22:00:00 9.8 22 Sudoeste 48 Oeste -- -- -- 78
2020-03-05 21:00:00 -- -- -- -- -- -- -- -- --
2020-03-05 20:00:00 -- -- -- -- -- -- -- -- --
2020-03-05 19:00:00 -- -- -- -- -- -- -- -- --
2020-03-05 18:00:00 -- -- -- -- -- -- -- -- --
2020-03-05 17:00:00 -- -- -- -- -- -- -- -- --
2020-03-05 16:00:00 -- -- -- -- -- -- -- -- --
2020-03-05 15:00:00 -- -- -- -- -- -- -- -- --
2020-03-05 14:00:00 -- -- -- -- -- -- -- -- --
2020-03-05 13:00:00 -- -- -- -- -- -- -- -- --
2020-03-05 12:00:00 -- -- -- -- -- -- -- -- --
2020-03-05 11:00:00 -- -- -- -- -- -- -- -- --
2020-03-05 10:00:00 -- -- -- -- -- -- -- -- --
2020-03-05 09:00:00 -- -- -- -- -- -- -- -- --
2020-03-05 08:00:00 -- -- -- -- -- -- -- -- --
2020-03-05 07:00:00 -- -- -- -- -- -- -- -- --
2020-03-05 06:00:00 -- -- -- -- -- -- -- -- --
2020-03-05 05:00:00 -- -- -- -- -- -- -- -- --
2020-03-05 04:00:00 -- -- -- -- -- -- -- -- --
2020-03-05 03:00:00 -- -- -- -- -- -- -- -- --
2020-03-05 02:00:00 -- -- -- -- -- -- -- -- --
2020-03-05 01:00:00 -- -- -- -- -- -- -- -- --
2020-03-05 00:00:00 -- -- -- -- -- -- -- -- --
2020-03-04 23:00:00 -- -- -- -- -- -- -- -- --
2020-03-04 22:00:00 -- -- -- -- -- -- -- -- --
2020-03-04 21:00:00 -- -- -- -- -- -- -- -- --
2020-03-04 20:00:00 -- -- -- -- -- -- -- -- --
2020-03-04 19:00:00 -- -- -- -- -- -- -- -- --
2020-03-04 18:00:00 -- -- -- -- -- -- -- -- --
2020-03-04 17:00:00 -- -- -- -- -- -- -- -- --
2020-03-04 16:00:00 -- -- -- -- -- -- -- -- --
2020-03-04 15:00:00 -- -- -- -- -- -- -- -- --
2020-03-04 14:00:00 -- -- -- -- -- -- -- -- --
2020-03-04 13:00:00 -- -- -- -- -- -- -- -- --
2020-03-04 12:00:00 -- -- -- -- -- -- -- -- --
2020-03-04 11:00:00 -- -- -- -- -- -- -- -- --
2020-03-04 10:00:00 -- -- -- -- -- -- -- -- --
2020-03-04 09:00:00 -- -- -- -- -- -- -- -- --
2020-03-04 08:00:00 -- -- -- -- -- -- -- -- --
2020-03-04 07:00:00 -- -- -- -- -- -- -- -- --
2020-03-04 06:00:00 -- -- -- -- -- -- -- -- --
2020-03-04 05:00:00 -- -- -- -- -- -- -- -- --
2020-03-04 04:00:00 -- -- -- -- -- -- -- -- --
2020-03-04 03:00:00 -- -- -- -- -- -- -- -- --
2020-03-04 02:00:00 -- -- -- -- -- -- -- -- --
2020-03-04 01:00:00 -- -- -- -- -- -- -- -- --
2020-03-04 00:00:00 -- -- -- -- -- -- -- -- --
2020-03-03 23:00:00 -- -- -- -- -- -- -- -- --
2020-03-03 22:00:00 -- -- -- -- -- -- -- -- --
2020-03-03 21:00:00 -- -- -- -- -- -- -- -- --
2020-03-03 20:00:00 -- -- -- -- -- -- -- -- --
2020-03-03 19:00:00 -- -- -- -- -- -- -- -- --
2020-03-03 18:00:00 -- -- -- -- -- -- -- -- --
2020-03-03 17:00:00 -- -- -- -- -- -- -- -- --
2020-03-03 16:00:00 -- -- -- -- -- -- -- -- --
2020-03-03 15:00:00 -- -- -- -- -- -- -- -- --
2020-03-03 14:00:00 -- -- -- -- -- -- -- -- --
2020-03-03 13:00:00 -- -- -- -- -- -- -- -- --
2020-03-03 12:00:00 -- -- -- -- -- -- -- -- --
2020-03-03 11:00:00 -- -- -- -- -- -- -- -- --
2020-03-03 10:00:00 -- -- -- -- -- -- -- -- --
2020-03-03 09:00:00 -- -- -- -- -- -- -- -- --
2020-03-03 08:00:00 -- -- -- -- -- -- -- -- --
2020-03-03 07:00:00 -- -- -- -- -- -- -- -- --
2020-03-03 06:00:00 -- -- -- -- -- -- -- -- --
2020-03-03 05:00:00 -- -- -- -- -- -- -- -- --
2020-03-03 04:00:00 -- -- -- -- -- -- -- -- --
2020-03-03 03:00:00 -- -- -- -- -- -- -- -- --
2020-03-03 02:00:00 -- -- -- -- -- -- -- -- --
2020-03-03 01:00:00 -- -- -- -- -- -- -- -- --
2020-03-03 00:00:00 -- -- -- -- -- -- -- -- --
2020-03-02 23:00:00 -- -- -- -- -- -- -- -- --
2020-03-02 22:00:00 -- -- -- -- -- -- -- -- --
2020-03-02 21:00:00 -- -- -- -- -- -- -- -- --
2020-03-02 20:00:00 -- -- -- -- -- -- -- -- --
2020-03-02 19:00:00 -- -- -- -- -- -- -- -- --
2020-03-02 18:00:00 -- -- -- -- -- -- -- -- --
2020-03-02 17:00:00 -- -- -- -- -- -- -- -- --
2020-03-02 16:00:00 -- -- -- -- -- -- -- -- --
2020-03-02 15:00:00 -- -- -- -- -- -- -- -- --
2020-03-02 14:00:00 -- -- -- -- -- -- -- -- --
2020-03-02 13:00:00 -- -- -- -- -- -- -- -- --
2020-03-02 12:00:00 -- -- -- -- -- -- -- -- --
2020-03-02 11:00:00 -- -- -- -- -- -- -- -- --
2020-03-02 10:00:00 7.4 21 Oeste 52 Oeste 1.6 -- -- 84
2020-03-02 09:00:00 9.3 19 Sudoeste 35 Oeste 0 -- -- 71
2020-03-02 08:00:00 8.7 21 Oeste 37 Oeste 0 -- -- 77
2020-03-02 07:00:00 8.5 23 Oeste 45 Sudoeste 0.4 -- -- 80
2020-03-02 06:00:00 9 33 Oeste 57 Oeste 0.2 -- -- 76
2020-03-02 05:00:00 9.3 25 Oeste 55 Oeste 0.6 -- -- 83
2020-03-02 04:00:00 9.6 18 Oeste 49 Oeste 0.2 -- -- 87
2020-03-02 03:00:00 10.3 27 Oeste 49 Oeste 1 -- -- 87
2020-03-02 02:00:00 10.3 31 Noroeste 50 Oeste 6.2 -- -- 95
2020-03-02 01:00:00 11.7 11 Oeste 30 Sudoeste 2.8 -- -- 88
2020-03-02 00:00:00 11.5 19 Sur 38 Sur 3 -- -- 89
2020-03-01 23:00:00 11.5 17 Sudoeste 30 Sur 2.4 -- -- 87
2020-03-01 22:00:00 11.3 4 Sudoeste 26 Sudoeste 2 -- -- 86
2020-03-01 21:00:00 12 14 Sudoeste 31 Sudoeste 1.4 -- -- 83
2020-03-01 20:00:00 12.2 15 Sur 33 Sudoeste 0.8 -- -- 81
2020-03-01 19:00:00 13 15 Sudoeste 40 Sur 0 -- -- 74
2020-03-01 18:00:00 14 20 Sudoeste 49 Sudoeste 0 -- -- 63
2020-03-01 17:00:00 15.2 21 Sudoeste 57 Sudoeste 0 -- -- 54
2020-03-01 16:00:00 16.2 25 Sudoeste 55 Sudoeste 0 -- -- 49
2020-03-01 15:00:00 16.5 22 Sudoeste 55 Oeste 0 -- -- 52
2020-03-01 14:00:00 16.5 21 Sudoeste 53 Sudoeste 0 -- -- 52
2020-03-01 13:00:00 16 21 Sudoeste 47 Oeste 0 -- -- 51
2020-03-01 12:00:00 15 23 Sudoeste 55 Sudoeste 0 -- -- 56
2020-03-01 11:00:00 14.3 25 Sudoeste 48 Sudoeste 0 -- -- 63
2020-03-01 10:00:00 13.6 24 Sudoeste 52 Sudoeste 0 -- -- 64
2020-03-01 09:00:00 13.2 25 Sudoeste 48 Sudoeste 0 -- -- 63
2020-03-01 08:00:00 13.2 33 Sudoeste 62 Oeste 0 -- -- 61
2020-03-01 07:00:00 12.8 22 Oeste 65 Sudoeste 0.2 -- -- 76
2020-03-01 06:00:00 13 32 Sudoeste 59 Sudoeste 0 -- -- 72
2020-03-01 05:00:00 12.5 30 Sudoeste 74 Sudoeste 0.2 -- -- 73
2020-03-01 04:00:00 12.1 30 Sudoeste 58 Sudoeste 0 -- -- 70
2020-03-01 03:00:00 11.7 35 Sur 72 Sur 0 -- -- 70
2020-03-01 02:00:00 11.6 25 Sur 62 Sur 0 -- -- 68
2020-03-01 01:00:00 10.9 21 Sudoeste 44 Sudoeste 0 -- -- 71
2020-03-01 00:00:00 10.7 13 Sudoeste 38 Sudoeste 0 -- -- 72
2020-02-29 23:00:00 10.7 14 Sudoeste 32 Sudoeste 0 -- -- 72
2020-02-29 22:00:00 11.4 24 Sudoeste 45 Sur 0 -- -- 65
2020-02-29 21:00:00 11.3 18 Sudoeste 52 Oeste 0 -- -- 67
2020-02-29 20:00:00 11.8 24 Sudoeste 47 Oeste 0 -- -- 64
2020-02-29 19:00:00 12.2 24 Sudoeste 50 Sudoeste 0 -- -- 61
2020-02-29 18:00:00 12.6 26 Sudoeste 52 Oeste 0 -- -- 62
2020-02-29 17:00:00 13 32 Sudoeste 53 Oeste 0 -- -- 59
2020-02-29 16:00:00 12.8 33 Oeste 55 Oeste 0 -- -- 64
2020-02-29 15:00:00 13.8 25 Sudoeste 42 Sudoeste 0 -- -- 61
2020-02-29 14:00:00 13.6 23 Oeste 45 Oeste 0 -- -- 60
2020-02-29 13:00:00 13.5 31 Sudoeste 55 Oeste 0 -- -- 55
2020-02-29 12:00:00 12.2 28 Sudoeste 49 Sudoeste 0.4 -- -- 65
2020-02-29 11:00:00 12.3 31 Sudoeste 60 Sudoeste 0 -- -- 65
2020-02-29 10:00:00 11.8 22 Sudoeste 55 Sudoeste 0 -- -- 68
2020-02-29 09:00:00 11.9 24 Sudoeste 49 Oeste 0 -- -- 65
2020-02-29 08:00:00 12.4 25 Sudoeste 53 Oeste 0 -- -- 67
2020-02-29 07:00:00 13.2 28 Sudoeste 48 Sudoeste 0.2 -- -- 66
2020-02-29 06:00:00 13 16 Sudoeste 38 Sudoeste 0 -- -- 77
2020-02-29 05:00:00 12.9 30 Sudoeste 71 Sudoeste 4.4 -- -- 79
2020-02-29 04:00:00 14.1 40 Sudoeste 86 Sur 0.6 -- -- 68
2020-02-29 03:00:00 13.4 25 Sudoeste 68 Sur 0 -- -- 63
2020-02-29 02:00:00 14.5 34 Sur 70 Sur 0 -- -- 53
2020-02-29 01:00:00 15.3 32 Sudoeste 82 Sur 0 -- -- 37
2020-02-29 00:00:00 15.8 32 Sudoeste 75 Sudoeste 0 -- -- 36